createdAt,value
2023-06-28T00:02:16.123Z,18.88
2023-06-28T00:04:46.570Z,18.88
2023-06-28T00:07:17.060Z,18.88
2023-06-28T00:09:50.316Z,18.89
2023-06-28T00:12:21.640Z,18.83
2023-06-28T00:14:52.104Z,18.85
2023-06-28T00:17:29.062Z,18.85
2023-06-28T00:19:59.415Z,18.84
2023-06-28T00:22:31.219Z,18.85
2023-06-28T00:25:06.965Z,18.80
2023-06-28T00:27:37.516Z,18.80
2023-06-28T00:30:09.628Z,18.81
2023-06-28T00:32:41.147Z,18.77
2023-06-28T00:35:12.275Z,18.73
2023-06-28T00:37:42.727Z,18.76
2023-06-28T00:40:16.136Z,18.75
2023-06-28T00:42:46.431Z,18.75
2023-06-28T00:45:17.836Z,18.75
2023-06-28T00:47:48.400Z,18.73
2023-06-28T00:50:19.268Z,18.74
2023-06-28T00:52:49.803Z,18.68
2023-06-28T00:55:22.993Z,18.68
2023-06-28T00:57:53.340Z,18.64
2023-06-28T01:00:24.130Z,18.66
2023-06-28T01:02:54.733Z,18.66
2023-06-28T01:05:25.278Z,18.63
2023-06-28T01:07:58.378Z,18.61
2023-06-28T01:10:31.296Z,18.57
2023-06-28T01:13:01.825Z,18.59
2023-06-28T01:15:32.751Z,18.59
2023-06-28T01:18:04.084Z,18.60
2023-06-28T01:20:34.722Z,18.56
2023-06-28T01:23:08.018Z,18.54
2023-06-28T01:25:38.628Z,18.55
2023-06-28T01:28:09.577Z,18.51
2023-06-28T01:30:40.656Z,18.49
2023-06-28T01:33:11.289Z,18.45
2023-06-28T01:35:41.651Z,18.42
2023-06-28T01:38:16.315Z,18.37
2023-06-28T01:40:47.645Z,18.34
2023-06-28T01:43:18.066Z,18.30
2023-06-28T01:45:48.472Z,18.27
2023-06-28T01:48:19.110Z,18.24
2023-06-28T01:50:49.993Z,18.22
2023-06-28T01:53:23.083Z,18.23
2023-06-28T01:55:53.436Z,18.25
2023-06-28T01:58:23.723Z,18.24
2023-06-28T02:00:54.084Z,18.22
2023-06-28T02:03:24.568Z,18.24
2023-06-28T02:05:54.890Z,18.25
2023-06-28T02:08:27.767Z,18.21
2023-06-28T02:10:58.319Z,18.23
2023-06-28T02:13:28.588Z,18.25
2023-06-28T02:15:59.853Z,18.22
2023-06-28T02:18:32.714Z,18.26
2023-06-28T02:21:03.193Z,18.21
2023-06-28T02:23:36.147Z,18.20
2023-06-28T02:26:06.427Z,18.21
2023-06-28T02:28:36.755Z,18.19
2023-06-28T02:31:07.060Z,18.17
2023-06-28T02:33:37.376Z,18.15
2023-06-28T02:36:08.518Z,18.17
2023-06-28T02:38:41.408Z,18.15
2023-06-28T02:41:11.702Z,18.17
2023-06-28T02:43:41.996Z,18.15
2023-06-28T02:46:12.402Z,18.14
2023-06-28T02:48:42.732Z,18.15
2023-06-28T02:51:13.118Z,18.12
2023-06-28T02:53:46.208Z,18.14
2023-06-28T02:56:16.928Z,18.14
2023-06-28T02:58:47.457Z,18.11
2023-06-28T03:01:17.969Z,18.13
2023-06-28T03:03:49.316Z,18.09
2023-06-28T03:06:19.983Z,18.11
2023-06-28T03:08:52.889Z,18.09
2023-06-28T03:11:23.204Z,18.11
2023-06-28T03:13:53.673Z,18.14
2023-06-28T03:16:26.217Z,18.16
2023-06-28T03:18:56.630Z,18.14
2023-06-28T03:21:26.929Z,18.15
2023-06-28T03:23:59.843Z,18.15
2023-06-28T03:26:30.816Z,18.16
2023-06-28T03:29:01.767Z,18.12
2023-06-28T03:31:33.066Z,18.14
2023-06-28T03:34:03.428Z,18.09
2023-06-28T03:36:36.023Z,18.11
2023-06-28T03:39:09.029Z,18.11
2023-06-28T03:41:39.372Z,18.10
2023-06-28T03:44:09.890Z,18.15
2023-06-28T03:46:40.484Z,18.11
2023-06-28T03:49:10.836Z,18.14
2023-06-28T03:51:42.392Z,18.13
2023-06-28T03:54:15.847Z,18.10
2023-06-28T03:56:47.385Z,18.16
2023-06-28T03:59:17.677Z,18.14
2023-06-28T04:01:48.920Z,18.12
2023-06-28T04:04:19.582Z,18.12
2023-06-28T04:06:50.243Z,18.14
2023-06-28T04:09:23.309Z,18.14
2023-06-28T04:11:53.607Z,18.11
2023-06-28T04:14:23.880Z,18.14
2023-06-28T04:16:54.349Z,18.14
2023-06-28T04:19:25.606Z,18.14
2023-06-28T04:21:56.320Z,18.13
2023-06-28T04:24:29.384Z,18.09
2023-06-28T04:27:01.965Z,18.12
2023-06-28T04:29:32.431Z,18.14
2023-06-28T04:32:05.348Z,18.14
2023-06-28T04:34:35.667Z,18.14
2023-06-28T04:37:14.646Z,18.16
2023-06-28T04:39:48.728Z,18.17
2023-06-28T04:42:19.199Z,18.16
2023-06-28T04:44:51.431Z,18.20
2023-06-28T04:47:22.376Z,18.19
2023-06-28T04:49:54.552Z,18.17
2023-06-28T04:52:26.461Z,18.17
2023-06-28T04:55:00.577Z,18.20
2023-06-28T04:57:31.264Z,18.17
2023-06-28T05:00:01.595Z,18.22
2023-06-28T05:02:33.338Z,18.26
2023-06-28T05:05:03.838Z,18.23
2023-06-28T05:07:34.686Z,18.25
2023-06-28T05:10:09.290Z,18.28
2023-06-28T05:12:39.983Z,18.30
2023-06-28T05:15:12.045Z,18.30
2023-06-28T05:17:42.665Z,18.30
2023-06-28T05:20:15.733Z,18.35
2023-06-28T05:22:52.361Z,18.35
2023-06-28T05:25:25.349Z,18.30
2023-06-28T05:27:55.686Z,18.35
2023-06-28T05:30:25.975Z,18.36
2023-06-28T05:32:56.345Z,18.39
2023-06-28T05:35:26.752Z,18.38
2023-06-28T05:37:57.076Z,18.39
2023-06-28T05:40:30.575Z,18.41
2023-06-28T05:43:01.561Z,18.39
2023-06-28T05:45:33.586Z,18.42
2023-06-28T05:48:04.215Z,18.49
2023-06-28T05:50:34.854Z,18.50
2023-06-28T05:53:05.172Z,18.48
2023-06-28T05:55:38.519Z,18.47
2023-06-28T05:58:08.806Z,18.54
2023-06-28T06:00:39.164Z,18.50
2023-06-28T06:03:09.701Z,18.54
2023-06-28T06:05:41.905Z,18.56
2023-06-28T06:08:12.197Z,18.56
2023-06-28T06:10:45.234Z,18.58
2023-06-28T06:13:16.047Z,18.60
2023-06-28T06:15:46.320Z,18.59
2023-06-28T06:18:16.793Z,18.59
2023-06-28T06:20:47.118Z,18.63
2023-06-28T06:23:17.470Z,18.63
2023-06-28T06:25:50.460Z,18.66
2023-06-28T06:28:20.807Z,18.64
2023-06-28T06:30:51.510Z,18.68
2023-06-28T06:33:22.305Z,18.70
2023-06-28T06:35:55.789Z,18.71
2023-06-28T06:38:27.680Z,18.72
2023-06-28T06:41:00.634Z,18.74
2023-06-28T06:43:30.940Z,18.78
2023-06-28T06:46:02.352Z,18.83
2023-06-28T06:48:32.655Z,18.85
2023-06-28T06:51:03.018Z,18.86
2023-06-28T06:53:33.338Z,18.87
2023-06-28T06:56:07.149Z,18.92
2023-06-28T06:58:38.086Z,18.99
2023-06-28T07:01:08.761Z,18.98
2023-06-28T07:03:39.168Z,19.05
2023-06-28T07:06:09.708Z,19.09
2023-06-28T07:08:40.128Z,19.11
2023-06-28T07:11:13.062Z,19.13
2023-06-28T07:13:43.432Z,19.13
2023-06-28T07:16:13.967Z,19.15
2023-06-28T07:18:44.545Z,19.20
2023-06-28T07:21:16.276Z,19.10
2023-06-28T07:23:47.736Z,19.18
2023-06-28T07:26:21.527Z,19.19
2023-06-28T07:28:52.276Z,19.16
2023-06-28T07:31:22.593Z,19.19
2023-06-28T07:33:52.862Z,19.17
2023-06-28T07:36:23.252Z,19.20
2023-06-28T07:38:54.873Z,19.13
2023-06-28T07:41:27.765Z,19.14
2023-06-28T07:43:58.092Z,19.16
2023-06-28T07:46:28.818Z,19.19
2023-06-28T07:49:00.975Z,19.19
2023-06-28T07:51:32.030Z,19.19
2023-06-28T07:54:02.367Z,19.24
2023-06-28T07:56:35.278Z,19.25
2023-06-28T07:59:06.655Z,19.24
2023-06-28T08:01:37.660Z,19.27
2023-06-28T08:04:08.379Z,19.34
2023-06-28T08:06:38.693Z,19.41
2023-06-28T08:09:09.292Z,19.44
2023-06-28T08:11:42.273Z,19.41
2023-06-28T08:14:12.885Z,19.46
2023-06-28T08:16:43.384Z,19.50
2023-06-28T08:19:14.711Z,19.52
2023-06-28T08:21:45.062Z,19.53
2023-06-28T08:24:15.360Z,19.57
2023-06-28T08:26:48.385Z,19.59
2023-06-28T08:29:18.770Z,19.70
2023-06-28T08:31:49.026Z,19.74
2023-06-28T08:34:19.702Z,19.74
2023-06-28T08:36:50.029Z,19.87
2023-06-28T08:39:20.382Z,19.92
2023-06-28T08:41:55.007Z,19.90
2023-06-28T08:44:27.836Z,19.95
2023-06-28T08:46:58.924Z,20.06
2023-06-28T08:49:30.042Z,20.12
2023-06-28T08:52:00.848Z,20.18
2023-06-28T08:54:31.967Z,20.25
2023-06-28T08:57:12.348Z,20.32
2023-06-28T08:59:43.564Z,20.43
2023-06-28T09:02:18.839Z,20.50
2023-06-28T09:04:52.629Z,20.54
2023-06-28T09:07:25.765Z,20.63
2023-06-28T09:09:56.491Z,20.71
2023-06-28T09:12:30.531Z,20.73
2023-06-28T09:15:00.803Z,20.80
2023-06-28T09:17:31.147Z,20.84
2023-06-28T09:20:06.000Z,20.91
2023-06-28T09:22:36.293Z,20.89
2023-06-28T09:25:07.827Z,20.98
2023-06-28T09:27:40.766Z,20.97
2023-06-28T09:30:14.209Z,21.01
2023-06-28T09:32:46.835Z,20.99
2023-06-28T09:35:17.203Z,20.97
2023-06-28T09:37:48.364Z,21.02
2023-06-28T09:40:20.460Z,21.09
2023-06-28T09:42:54.692Z,21.18
2023-06-28T09:45:31.667Z,21.29
2023-06-28T09:48:03.900Z,21.40
2023-06-28T09:50:42.009Z,21.52
2023-06-28T09:53:14.350Z,21.65
2023-06-28T09:55:46.594Z,21.78
2023-06-28T09:58:22.376Z,21.95
2023-06-28T10:00:54.146Z,21.97
2023-06-28T10:03:29.472Z,22.10
2023-06-28T10:06:00.737Z,22.11
2023-06-28T10:08:32.161Z,22.14
2023-06-28T10:11:02.693Z,22.20
2023-06-28T10:13:35.784Z,22.25
2023-06-28T10:16:13.787Z,22.28
2023-06-28T10:18:46.150Z,22.30
2023-06-28T10:21:16.667Z,22.32
2023-06-28T10:23:47.969Z,22.37
2023-06-28T10:26:19.545Z,22.48
2023-06-28T10:28:55.489Z,22.57
2023-06-28T10:31:27.139Z,22.66
2023-06-28T10:34:00.566Z,22.80
2023-06-28T10:36:31.358Z,22.92
2023-06-28T10:39:01.706Z,22.93
2023-06-28T10:41:32.302Z,23.00
2023-06-28T10:44:10.315Z,23.10
2023-06-28T10:46:41.753Z,23.13
2023-06-28T10:49:12.362Z,23.18
2023-06-28T10:51:48.864Z,23.29
2023-06-28T10:54:19.122Z,23.39
2023-06-28T10:56:53.005Z,23.46
2023-06-28T10:59:26.009Z,23.50
2023-06-28T11:01:57.611Z,23.58
2023-06-28T11:04:29.808Z,23.64
2023-06-28T11:07:20.042Z,23.70
2023-06-28T11:10:18.126Z,23.65
2023-06-28T11:12:51.571Z,23.66
2023-06-28T11:15:32.732Z,23.58
2023-06-28T11:18:16.164Z,23.57
2023-06-28T11:20:52.565Z,23.62
2023-06-28T11:23:33.520Z,23.63
2023-06-28T11:26:06.896Z,23.61
2023-06-28T11:28:39.187Z,23.57
2023-06-28T11:31:23.575Z,23.47
2023-06-28T11:33:55.888Z,23.60
2023-06-28T11:36:28.475Z,23.63
2023-06-28T11:38:59.408Z,23.75
2023-06-28T11:41:29.753Z,23.84
2023-06-28T11:44:08.966Z,23.91
2023-06-28T11:46:42.660Z,24.00
2023-06-28T11:49:13.200Z,24.05
2023-06-28T11:51:44.345Z,24.23
2023-06-28T11:54:16.201Z,24.31
2023-06-28T11:56:50.732Z,24.36
2023-06-28T11:59:22.948Z,24.45
2023-06-28T12:02:07.589Z,24.60
2023-06-28T12:04:40.285Z,24.67
2023-06-28T12:07:10.955Z,24.64
2023-06-28T12:09:41.547Z,24.66
2023-06-28T12:12:12.783Z,24.59
2023-06-28T12:14:45.622Z,24.59
2023-06-28T12:17:18.618Z,24.67
2023-06-28T12:19:49.090Z,24.80
2023-06-28T12:22:19.385Z,24.84
2023-06-28T12:24:51.396Z,24.84
2023-06-28T12:27:21.694Z,24.96
2023-06-28T12:29:51.967Z,25.04
2023-06-28T12:32:28.049Z,25.22
2023-06-28T12:34:58.464Z,25.25
2023-06-28T12:37:44.152Z,25.30
2023-06-28T12:40:17.263Z,25.23
2023-06-28T12:42:47.548Z,25.25
2023-06-28T12:45:17.951Z,25.29
2023-06-28T12:47:50.902Z,25.32
2023-06-28T12:50:21.507Z,25.33
2023-06-28T12:52:51.765Z,25.37
2023-06-28T12:55:22.207Z,25.34
2023-06-28T12:57:52.505Z,25.31
2023-06-28T13:00:23.280Z,25.23
2023-06-28T13:02:56.227Z,25.09
2023-06-28T13:05:26.531Z,25.00
2023-06-28T13:07:56.858Z,24.79
2023-06-28T13:10:27.193Z,24.73
2023-06-28T13:12:57.512Z,24.60
2023-06-28T13:15:27.819Z,24.39
2023-06-28T13:18:00.810Z,24.26
2023-06-28T13:20:31.194Z,24.08
2023-06-28T13:23:01.595Z,24.01
2023-06-28T13:25:32.050Z,23.72
2023-06-28T13:28:02.312Z,23.69
2023-06-28T13:30:32.656Z,23.65
2023-06-28T13:33:05.588Z,23.61
2023-06-28T13:35:36.000Z,23.65
2023-06-28T13:38:06.322Z,23.70
2023-06-28T13:40:36.717Z,23.79
2023-06-28T13:43:08.728Z,23.87
2023-06-28T13:45:39.226Z,23.93
2023-06-28T13:48:12.224Z,24.06
2023-06-28T13:50:42.774Z,24.27
2023-06-28T13:53:15.227Z,24.42
2023-06-28T13:55:46.304Z,24.44
2023-06-28T13:58:16.589Z,24.50
2023-06-28T14:00:47.070Z,24.49
2023-06-28T14:03:20.022Z,24.48
2023-06-28T14:05:50.380Z,24.43
2023-06-28T14:08:20.928Z,24.23
2023-06-28T14:10:53.373Z,24.07
2023-06-28T14:13:23.748Z,24.15
2023-06-28T14:15:54.148Z,24.04
2023-06-28T14:18:26.986Z,23.91
2023-06-28T14:20:57.332Z,23.80
2023-06-28T14:23:27.631Z,23.63
2023-06-28T14:25:58.130Z,23.53
2023-06-28T14:28:31.055Z,23.49
2023-06-28T14:31:03.980Z,23.44
2023-06-28T14:33:37.598Z,23.46
2023-06-28T14:36:08.944Z,23.46
2023-06-28T14:38:39.342Z,23.49
2023-06-28T14:41:09.685Z,23.51
2023-06-28T14:43:40.028Z,23.55
2023-06-28T14:46:11.048Z,23.51
2023-06-28T14:48:43.993Z,23.54
2023-06-28T14:51:14.299Z,23.60
2023-06-28T14:53:44.985Z,23.68
2023-06-28T14:56:15.262Z,23.73
2023-06-28T14:58:45.594Z,23.58
2023-06-28T15:01:15.915Z,23.60
2023-06-28T15:03:48.909Z,23.59
2023-06-28T15:06:19.879Z,23.54
2023-06-28T15:08:50.171Z,23.55
2023-06-28T15:11:20.663Z,23.38
2023-06-28T15:13:50.952Z,23.29
2023-06-28T15:16:21.405Z,23.16
2023-06-28T15:18:54.733Z,23.07
2023-06-28T15:21:25.304Z,23.11
2023-06-28T15:23:55.569Z,23.00
2023-06-28T15:26:26.292Z,22.96
2023-06-28T15:28:59.370Z,22.94
2023-06-28T15:31:29.771Z,22.88
2023-06-28T15:34:02.723Z,22.85
2023-06-28T15:36:33.052Z,22.80
2023-06-28T15:39:03.382Z,22.72
2023-06-28T15:41:33.732Z,22.67
2023-06-28T15:44:04.041Z,22.63
2023-06-28T15:46:35.117Z,22.58
2023-06-28T15:49:08.082Z,22.42
2023-06-28T15:51:38.401Z,22.38
2023-06-28T15:54:08.894Z,22.21
2023-06-28T15:56:40.013Z,22.19
2023-06-28T15:59:10.490Z,22.07
2023-06-28T16:01:40.867Z,22.05
2023-06-28T16:04:13.964Z,21.89
2023-06-28T16:06:44.426Z,21.77
2023-06-28T16:09:14.930Z,21.72
2023-06-28T16:11:45.241Z,21.62
2023-06-28T16:14:15.561Z,21.49
2023-06-28T16:16:48.575Z,21.41
2023-06-28T16:19:22.062Z,21.38
2023-06-28T16:21:52.389Z,21.29
2023-06-28T16:24:22.700Z,21.12
2023-06-28T16:26:53.182Z,21.00
2023-06-28T16:29:23.477Z,20.80
2023-06-28T16:31:54.087Z,20.63
2023-06-28T16:34:26.945Z,20.57
2023-06-28T16:36:57.229Z,20.43
2023-06-28T16:39:27.544Z,20.31
2023-06-28T16:41:57.887Z,20.34
2023-06-28T16:44:28.170Z,20.10
2023-06-28T16:46:58.452Z,20.17
2023-06-28T16:49:31.377Z,20.18
2023-06-28T16:52:01.675Z,20.20
2023-06-28T16:54:31.972Z,20.19
2023-06-28T16:57:02.302Z,20.15
2023-06-28T16:59:33.289Z,19.95
2023-06-28T17:02:03.770Z,19.62
2023-06-28T17:04:36.716Z,19.39
2023-06-28T17:07:09.631Z,19.13
2023-06-28T17:09:40.122Z,18.92
2023-06-28T17:12:11.653Z,18.85
2023-06-28T17:14:41.915Z,18.80
2023-06-28T17:17:12.212Z,18.69
2023-06-28T17:19:45.142Z,18.48
2023-06-28T17:22:15.546Z,18.42
2023-06-28T17:24:45.923Z,18.40
2023-06-28T17:27:17.248Z,18.34
2023-06-28T17:29:47.651Z,18.11
2023-06-28T17:32:18.074Z,18.08
2023-06-28T17:34:51.056Z,18.05
2023-06-28T17:37:21.692Z,18.01
2023-06-28T17:39:52.035Z,17.81
2023-06-28T17:42:22.576Z,17.85
2023-06-28T17:44:53.168Z,17.84
2023-06-28T17:47:23.630Z,17.80
2023-06-28T17:49:56.568Z,17.81
2023-06-28T17:52:26.843Z,17.79
2023-06-28T17:54:58.649Z,17.76
2023-06-28T17:57:30.142Z,17.82
2023-06-28T18:00:00.480Z,17.76
2023-06-28T18:02:30.943Z,17.65
2023-06-28T18:05:03.933Z,17.59
2023-06-28T18:07:34.628Z,17.48
2023-06-28T18:10:05.884Z,17.40
2023-06-28T18:12:37.114Z,17.37
2023-06-28T18:15:09.102Z,17.35
2023-06-28T18:17:39.465Z,17.34
2023-06-28T18:20:14.674Z,17.34
2023-06-28T18:22:45.032Z,17.25
2023-06-28T18:25:16.644Z,17.27
2023-06-28T18:27:47.177Z,17.27
2023-06-28T18:30:17.724Z,17.25
2023-06-28T18:32:48.749Z,17.29
2023-06-28T18:35:21.683Z,17.28
2023-06-28T18:37:52.057Z,17.18
2023-06-28T18:40:22.536Z,17.18
2023-06-28T18:42:52.950Z,17.22
2023-06-28T18:45:23.223Z,17.21
2023-06-28T18:47:53.580Z,17.26
2023-06-28T18:50:26.594Z,17.24
2023-06-28T18:52:57.050Z,17.22
2023-06-28T18:55:27.366Z,17.25
2023-06-28T18:57:59.613Z,17.20
2023-06-28T19:00:29.951Z,17.15
2023-06-28T19:03:00.501Z,17.13
2023-06-28T19:05:33.370Z,17.11
2023-06-28T19:08:03.707Z,17.14
2023-06-28T19:10:33.966Z,17.20
2023-06-28T19:13:04.292Z,17.15
2023-06-28T19:15:34.537Z,17.17
2023-06-28T19:18:04.966Z,17.16
2023-06-28T19:20:39.194Z,17.06
2023-06-28T19:23:09.620Z,17.09
2023-06-28T19:25:40.069Z,17.13
2023-06-28T19:28:10.628Z,17.17
2023-06-28T19:30:41.128Z,17.11
2023-06-28T19:33:12.060Z,17.12
2023-06-28T19:35:45.081Z,17.12
2023-06-28T19:38:15.926Z,17.16
2023-06-28T19:40:46.368Z,17.10
2023-06-28T19:43:18.524Z,17.12
2023-06-28T19:45:48.862Z,17.08
2023-06-28T19:48:19.250Z,17.12
2023-06-28T19:50:52.204Z,17.08
2023-06-28T19:53:22.652Z,17.04
2023-06-28T19:55:52.925Z,17.05
2023-06-28T19:58:23.281Z,17.06
2023-06-28T20:00:54.478Z,17.03
2023-06-28T20:03:24.835Z,16.96
2023-06-28T20:05:57.937Z,16.94
2023-06-28T20:08:28.277Z,16.94
2023-06-28T20:10:58.627Z,16.87
2023-06-28T20:13:31.614Z,16.88
2023-06-28T20:16:02.577Z,16.87
2023-06-28T20:18:32.853Z,16.85
2023-06-28T20:21:06.232Z,16.78
2023-06-28T20:23:36.773Z,16.75
2023-06-28T20:26:07.050Z,16.73
2023-06-28T20:28:41.707Z,16.76
2023-06-28T20:31:12.489Z,16.64
2023-06-28T20:33:45.760Z,16.68
2023-06-28T20:36:18.707Z,16.67
2023-06-28T20:38:49.456Z,16.66
2023-06-28T20:41:25.854Z,16.66
2023-06-28T20:43:59.636Z,16.68
2023-06-28T20:46:29.945Z,16.64
2023-06-28T20:49:00.320Z,16.58
2023-06-28T20:51:33.254Z,16.62
2023-06-28T20:54:03.706Z,16.51
2023-06-28T20:56:34.077Z,16.44
2023-06-28T20:59:04.418Z,16.35
2023-06-28T21:01:34.742Z,16.46
2023-06-28T21:04:05.105Z,16.42
2023-06-28T21:06:38.084Z,16.40
2023-06-28T21:09:08.509Z,16.38
2023-06-28T21:11:39.595Z,16.34
2023-06-28T21:14:09.892Z,16.42
2023-06-28T21:16:40.120Z,16.34
2023-06-28T21:19:10.433Z,16.34
2023-06-28T21:21:44.102Z,16.36
2023-06-28T21:24:16.346Z,16.37
2023-06-28T21:26:46.918Z,16.33
2023-06-28T21:29:17.549Z,16.37
2023-06-28T21:31:47.935Z,16.35
2023-06-28T21:34:18.315Z,16.32
2023-06-28T21:36:51.202Z,16.27
2023-06-28T21:39:21.619Z,16.32
2023-06-28T21:41:51.920Z,16.26
2023-06-28T21:44:24.050Z,16.31
2023-06-28T21:46:54.352Z,16.26
2023-06-28T21:49:24.764Z,16.36
2023-06-28T21:51:58.824Z,16.28
2023-06-28T21:54:29.147Z,16.26
2023-06-28T21:56:59.436Z,16.26
2023-06-28T21:59:33.198Z,16.26
2023-06-28T22:02:03.980Z,16.22
2023-06-28T22:04:34.458Z,16.27
2023-06-28T22:07:08.107Z,16.30
2023-06-28T22:09:38.528Z,16.25
2023-06-28T22:12:09.916Z,16.22
2023-06-28T22:14:43.307Z,16.20
2023-06-28T22:17:14.219Z,16.23
2023-06-28T22:19:44.503Z,16.21
2023-06-28T22:22:17.685Z,16.16
2023-06-28T22:24:48.007Z,16.16
2023-06-28T22:27:18.293Z,16.21
2023-06-28T22:29:48.808Z,16.13
2023-06-28T22:32:19.129Z,16.15
2023-06-28T22:34:50.100Z,16.12
2023-06-28T22:37:23.259Z,16.09
2023-06-28T22:39:54.028Z,16.06
2023-06-28T22:42:24.315Z,16.05
2023-06-28T22:44:54.618Z,15.94
2023-06-28T22:47:24.909Z,15.98
2023-06-28T22:49:55.179Z,15.95
2023-06-28T22:52:28.071Z,15.95
2023-06-28T22:54:58.528Z,15.97
2023-06-28T22:57:29.866Z,15.89
2023-06-28T23:00:00.274Z,15.93
2023-06-28T23:02:30.935Z,15.87
2023-06-28T23:05:01.349Z,15.85
2023-06-28T23:07:35.320Z,15.86
2023-06-28T23:10:05.999Z,15.82
2023-06-28T23:12:38.287Z,15.83
2023-06-28T23:15:11.425Z,15.82
2023-06-28T23:17:42.116Z,15.79
2023-06-28T23:20:14.668Z,15.76
2023-06-28T23:22:50.868Z,15.74
2023-06-28T23:25:21.163Z,15.75
2023-06-28T23:27:51.983Z,15.73
2023-06-28T23:30:23.617Z,15.67
2023-06-28T23:32:55.829Z,15.68
2023-06-28T23:35:33.327Z,15.67
2023-06-28T23:38:06.265Z,15.63
2023-06-28T23:40:36.612Z,15.62
2023-06-28T23:43:08.162Z,15.63
2023-06-28T23:45:42.739Z,15.63
2023-06-28T23:48:13.561Z,15.55
2023-06-28T23:50:46.796Z,15.59
2023-06-28T23:53:21.952Z,15.51
2023-06-28T23:55:52.349Z,15.54
2023-06-28T23:58:22.993Z,15.50
